Startpagina
METAR-TAF:

METAR-TAF

Vliegvelden :

Vijayawada, India

breedte: 16-31-44N, lengte: 80-47-45E, hoogte: 25 m

Actueel weer

Dit bericht is 2 uur en het 52 minuten geleden gemaakt, om 16:00 UTC
Weinig wind
Temperatuur 26°C
Vochtigheid 94%
Druk 1013 hPa
Zicht: 3000 m
Verspreide wolken op 2000 ft
Weinig wolken op 3000 ft, Cumulonimbus.
Gebroken wolken op 10000 ft
Heiigheid

METAR: VOBZ 161600Z 00000KT 3000 HZ SCT020 FEW030CB BKN100 26/25 Q1013 NOSIG

Tijdstip: 00:22 (18:52 UTC)


TAF: ontbreekt

Waarnemingen en weersverwachtingen van meer dan 4000 vliegvelden (METAR en TAF).

De beschikbare stations zijn de gele en rode punten op de kaart.

Ga met uw muis naar het station om de naam te zien.

Klik dan om waarnemingen en weersverwachtingen te zien.

kaart wijzigen: klik op de groene knoppen met een zwart kruis om in te zoomen, op de groene knop met een streepje om uit te zoomen of op de groene pijlen voor aangrenzende kaarten.


METAR-TAF: